Time;durP1;ratioP1;P1;durP2;ratioP2;P2;SDS_P1;SDS_P2;PMS_P1;PMS_P2;Temp;Humidity;BMP_temperature;BMP_pressure;BME280_temperature;BME280_humidity;BME280_pressure;Samples;Min_cycle;Max_cycle;Signal;HPM_P1;HPM_P2
2021/10/28 00:13:38;;;;;;;18.67;15.90;;;;;;;;;;4857285;29;20036;-81
2021/10/28 00:16:19;;;;;;;18.67;16.58;;;;;;;;;;4832898;29;20121;-81
2021/10/28 00:18:48;;;;;;;19.17;16.25;;;;;;;;;;4847855;29;20030;-81
2021/10/28 00:21:14;;;;;;;18.02;15.82;;;;;;;;;;4858309;29;20049;-81
2021/10/28 00:23:43;;;;;;;22.85;16.35;;;;;;;;;;4843065;29;20108;-81
2021/10/28 00:26:10;;;;;;;19.58;17.17;;;;;;;;;;4865019;29;20049;-81
2021/10/28 00:28:37;;;;;;;20.63;17.17;;;;;;;;;;4858168;29;20467;-81
2021/10/28 00:31:07;;;;;;;18.23;16.33;;;;;;;;;;4860121;29;20046;-81
2021/10/28 00:33:33;;;;;;;18.80;15.57;;;;;;;;;;4830989;29;20038;-81
2021/10/28 00:36:00;;;;;;;19.35;15.68;;;;;;;;;;4862531;29;20388;-81
2021/10/28 00:38:27;;;;;;;18.65;16.10;;;;;;;;;;4858192;29;20399;-80
2021/10/28 00:40:53;;;;;;;18.80;16.08;;;;;;;;;;4844958;29;20037;-82
2021/10/28 00:43:20;;;;;;;17.85;15.95;;;;;;;;;;4861809;29;20033;-81
2021/10/28 00:45:50;;;;;;;19.33;15.90;;;;;;;;;;4863850;29;20032;-80
2021/10/28 00:48:15;;;;;;;18.77;15.60;;;;;;;;;;4862358;29;20082;-80
2021/10/28 00:50:41;;;;;;;19.60;15.15;;;;;;;;;;4848635;29;20041;-81
2021/10/28 00:53:07;;;;;;;18.40;15.95;;;;;;;;;;4853134;29;20037;-81
2021/10/28 00:55:35;;;;;;;18.42;15.73;;;;;;;;;;4859070;29;20090;-81
2021/10/28 00:58:02;;;;;;;19.92;15.55;;;;;;;;;;4862819;29;20089;-81
2021/10/28 01:00:27;;;;;;;17.48;15.60;;;;;;;;;;4847212;29;20082;-80
2021/10/28 01:02:52;;;;;;;19.27;15.23;;;;;;;;;;4862159;29;20029;-80
2021/10/28 01:05:18;;;;;;;17.42;15.60;;;;;;;;;;4855786;29;20033;-80
2021/10/28 01:07:44;;;;;;;18.15;15.57;;;;;;;;;;4862207;29;20025;-81
2021/10/28 01:10:10;;;;;;;19.15;15.40;;;;;;;;;;4862239;29;20534;-82
2021/10/28 01:12:38;;;;;;;17.13;15.32;;;;;;;;;;4848027;29;20041;-81
2021/10/28 01:15:11;;;;;;;17.75;15.75;;;;;;;;;;4857599;29;20027;-81
2021/10/28 01:17:37;;;;;;;18.17;15.50;;;;;;;;;;4845830;29;20101;-81
2021/10/28 01:20:04;;;;;;;19.52;15.68;;;;;;;;;;4853084;29;20061;-81
2021/10/28 01:22:31;;;;;;;16.80;15.00;;;;;;;;;;4847132;29;20049;-81
2021/10/28 01:24:57;;;;;;;19.02;16.00;;;;;;;;;;4856172;29;20502;-81
2021/10/28 01:27:22;;;;;;;17.52;14.70;;;;;;;;;;4843505;29;20022;-81
2021/10/28 01:29:48;;;;;;;16.83;14.73;;;;;;;;;;4865265;29;20033;-81
2021/10/28 01:32:16;;;;;;;17.45;14.57;;;;;;;;;;4863637;29;20041;-81
2021/10/28 01:34:46;;;;;;;16.65;14.70;;;;;;;;;;4842559;29;20415;-81
2021/10/28 01:37:15;;;;;;;18.38;15.48;;;;;;;;;;4844519;29;20042;-81
2021/10/28 01:39:41;;;;;;;17.75;14.32;;;;;;;;;;4862887;29;20053;-81
2021/10/28 01:42:09;;;;;;;18.60;14.98;;;;;;;;;;4862460;29;20455;-80
2021/10/28 01:44:36;;;;;;;18.02;15.63;;;;;;;;;;4859206;29;20474;-81
2021/10/28 01:47:02;;;;;;;17.27;15.18;;;;;;;;;;4846022;29;20248;-80
2021/10/28 01:49:28;;;;;;;18.10;15.55;;;;;;;;;;4856112;29;20447;-82
2021/10/28 01:51:56;;;;;;;18.02;15.55;;;;;;;;;;4867317;29;20041;-81
2021/10/28 01:54:26;;;;;;;20.17;16.35;;;;;;;;;;4867057;29;20380;-82
2021/10/28 01:56:52;;;;;;;19.00;15.75;;;;;;;;;;4832736;29;20515;-81
2021/10/28 01:59:18;;;;;;;18.88;14.93;;;;;;;;;;4844175;29;20042;-80
2021/10/28 02:01:44;;;;;;;17.52;15.00;;;;;;;;;;4859367;29;20033;-81
2021/10/28 02:04:12;;;;;;;18.50;15.70;;;;;;;;;;4850810;29;20033;-81
2021/10/28 02:06:38;;;;;;;16.58;14.48;;;;;;;;;;4867028;29;20398;-81
2021/10/28 02:09:04;;;;;;;17.05;14.93;;;;;;;;;;4863818;29;20025;-80
2021/10/28 02:11:31;;;;;;;18.38;16.48;;;;;;;;;;4852099;29;20086;-81
2021/10/28 02:13:59;;;;;;;19.13;15.73;;;;;;;;;;4838187;29;20034;-81
2021/10/28 02:16:30;;;;;;;18.13;15.57;;;;;;;;;;4831672;29;20082;-81
2021/10/28 02:18:56;;;;;;;17.73;15.93;;;;;;;;;;4863850;29;20430;-81
2021/10/28 02:21:22;;;;;;;19.55;15.15;;;;;;;;;;4845833;29;20037;-80
2021/10/28 02:23:48;;;;;;;18.60;15.23;;;;;;;;;;4864536;29;20097;-81
2021/10/28 02:26:13;;;;;;;17.60;15.80;;;;;;;;;;4848855;29;20515;-81
2021/10/28 02:28:38;;;;;;;18.27;15.75;;;;;;;;;;4859690;29;20065;-81
2021/10/28 02:31:04;;;;;;;18.77;14.85;;;;;;;;;;4850187;29;20045;-81
2021/10/28 02:33:29;;;;;;;17.08;14.68;;;;;;;;;;4850292;29;20447;-81
2021/10/28 02:35:56;;;;;;;16.58;14.82;;;;;;;;;;4863229;29;20045;-80
2021/10/28 02:38:22;;;;;;;17.60;15.13;;;;;;;;;;4863174;29;20554;-81
2021/10/28 02:40:49;;;;;;;17.73;14.93;;;;;;;;;;4858011;29;20090;-80
2021/10/28 02:43:14;;;;;;;15.75;13.65;;;;;;;;;;4865072;29;20029;-81
2021/10/28 02:45:43;;;;;;;15.45;13.85;;;;;;;;;;4866806;29;20044;-81
2021/10/28 02:48:10;;;;;;;16.42;13.50;;;;;;;;;;4849792;29;20026;-81
2021/10/28 02:50:36;;;;;;;17.80;14.35;;;;;;;;;;4863978;29;20037;-81
2021/10/28 02:53:02;;;;;;;17.08;14.38;;;;;;;;;;4864478;29;20093;-81
2021/10/28 02:55:29;;;;;;;15.38;13.50;;;;;;;;;;4843699;29;20106;-81
2021/10/28 02:57:55;;;;;;;15.88;14.18;;;;;;;;;;4851516;29;20044;-81
2021/10/28 03:00:21;;;;;;;15.40;13.80;;;;;;;;;;4849460;29;20037;-81
2021/10/28 03:02:48;;;;;;;16.30;13.73;;;;;;;;;;4863798;29;20440;-81
2021/10/28 03:05:13;;;;;;;14.93;13.10;;;;;;;;;;4866792;29;20026;-81
2021/10/28 03:07:39;;;;;;;17.52;13.75;;;;;;;;;;4849836;29;20040;-81
2021/10/28 03:10:08;;;;;;;15.60;14.00;;;;;;;;;;4844972;29;20041;-81
2021/10/28 03:12:36;;;;;;;14.77;13.25;;;;;;;;;;4865247;29;20032;-81
2021/10/28 03:15:04;;;;;;;14.55;12.82;;;;;;;;;;4830456;29;20053;-81
2021/10/28 03:25:44;;;;;;;17.30;13.43;;;;;;;;;;4859211;29;20087;-81
2021/10/28 03:28:18;;;;;;;17.30;14.10;;;;;;;;;;4849791;29;20049;-81
2021/10/28 03:30:44;;;;;;;14.40;12.82;;;;;;;;;;4847374;29;20032;-81
2021/10/28 03:33:14;;;;;;;17.17;12.20;;;;;;;;;;4829495;29;20113;-80
2021/10/28 03:35:40;;;;;;;15.90;13.13;;;;;;;;;;4843653;29;20025;-80
2021/10/28 04:31:16;;;;;;;15.85;13.75;;;;;;;;;;4860450;29;20040;-81
2021/10/28 04:33:42;;;;;;;16.60;13.38;;;;;;;;;;4861271;29;20034;-81
2021/10/28 04:36:11;;;;;;;16.20;13.05;;;;;;;;;;4862413;29;20037;-81
2021/10/28 04:38:37;;;;;;;15.43;13.80;;;;;;;;;;4845819;29;20033;-81
2021/10/28 04:41:03;;;;;;;16.80;13.32;;;;;;;;;;4846534;29;20048;-81
2021/10/28 04:43:28;;;;;;;16.58;13.05;;;;;;;;;;4863440;29;20033;-80
2021/10/28 04:45:53;;;;;;;17.63;12.93;;;;;;;;;;4861101;29;20037;-81
2021/10/28 04:48:19;;;;;;;17.58;13.15;;;;;;;;;;4846733;29;20036;-81
2021/10/28 04:50:44;;;;;;;14.77;12.48;;;;;;;;;;4864222;29;20027;-82
2021/10/28 04:53:11;;;;;;;14.32;12.93;;;;;;;;;;4845518;29;20056;-81
2021/10/28 04:55:37;;;;;;;14.95;13.18;;;;;;;;;;4839589;29;20061;-81
2021/10/28 04:58:04;;;;;;;13.93;12.48;;;;;;;;;;4854220;29;20086;-81
2021/10/28 05:00:32;;;;;;;13.80;12.40;;;;;;;;;;4859846;29;20068;-82
2021/10/28 05:02:57;;;;;;;14.20;12.80;;;;;;;;;;4862992;29;20037;-81
2021/10/28 05:05:23;;;;;;;14.45;12.63;;;;;;;;;;4844788;29;20082;-80
2021/10/28 05:07:48;;;;;;;13.20;11.80;;;;;;;;;;4857611;29;20041;-80
2021/10/28 05:10:14;;;;;;;13.63;12.23;;;;;;;;;;4857317;29;20049;-80
2021/10/28 05:12:39;;;;;;;13.50;11.57;;;;;;;;;;4859793;29;20093;-80
2021/10/28 05:15:05;;;;;;;16.08;12.60;;;;;;;;;;4856837;29;20074;-80
2021/10/28 05:17:31;;;;;;;14.18;12.23;;;;;;;;;;4843091;29;20033;-80
2021/10/28 05:19:56;;;;;;;13.27;11.57;;;;;;;;;;4859364;29;20060;-79
2021/10/28 05:22:22;;;;;;;15.27;11.82;;;;;;;;;;4858894;29;20037;-81
2021/10/28 05:24:47;;;;;;;14.63;12.77;;;;;;;;;;4859295;29;20040;-80
2021/10/28 05:27:13;;;;;;;14.63;13.02;;;;;;;;;;4854963;29;20033;-80
2021/10/28 05:29:38;;;;;;;16.10;12.55;;;;;;;;;;4856824;29;20452;-80
2021/10/28 05:32:04;;;;;;;15.93;12.68;;;;;;;;;;4857371;29;20037;-80
2021/10/28 05:34:30;;;;;;;15.20;13.13;;;;;;;;;;4858563;29;20036;-80
2021/10/28 05:36:55;;;;;;;15.60;13.52;;;;;;;;;;4858754;29;20045;-80
2021/10/28 05:39:20;;;;;;;17.48;12.98;;;;;;;;;;4860320;29;20030;-80
2021/10/28 05:41:47;;;;;;;15.13;13.43;;;;;;;;;;4856643;29;20034;-79
2021/10/28 05:44:12;;;;;;;14.98;13.38;;;;;;;;;;4859295;29;20044;-80
2021/10/28 05:46:38;;;;;;;15.25;13.50;;;;;;;;;;4857318;29;20112;-80
2021/10/28 05:49:03;;;;;;;16.00;13.38;;;;;;;;;;4856698;29;20402;-80
2021/10/28 05:51:29;;;;;;;15.48;13.82;;;;;;;;;;4860164;29;20058;-79
2021/10/28 05:53:55;;;;;;;18.95;14.07;;;;;;;;;;4856454;29;20041;-79
2021/10/28 05:56:20;;;;;;;17.13;14.10;;;;;;;;;;4841384;29;20039;-79
2021/10/28 05:58:45;;;;;;;16.10;14.13;;;;;;;;;;4850083;29;20042;-80
2021/10/28 06:01:11;;;;;;;16.05;14.13;;;;;;;;;;4856922;29;20036;-79
2021/10/28 06:03:37;;;;;;;20.20;14.40;;;;;;;;;;4858150;29;20026;-79
2021/10/28 06:06:04;;;;;;;19.45;14.25;;;;;;;;;;4857981;29;20033;-79
2021/10/28 06:08:29;;;;;;;15.93;14.13;;;;;;;;;;4857565;29;20037;-79
2021/10/28 06:10:54;;;;;;;18.25;14.02;;;;;;;;;;4856103;29;20408;-80
2021/10/28 06:13:21;;;;;;;18.60;14.50;;;;;;;;;;4856110;29;20136;-80
2021/10/28 06:15:47;;;;;;;15.32;13.20;;;;;;;;;;4858680;29;20037;-80
2021/10/28 06:20:39;;;;;;;17.55;13.57;;;;;;;;;;4857593;29;20061;-80
2021/10/28 06:23:04;;;;;;;16.23;12.65;;;;;;;;;;4857245;29;20044;-80
2021/10/28 06:25:30;;;;;;;16.73;13.48;;;;;;;;;;4857751;29;20550;-80
2021/10/28 06:27:56;;;;;;;19.80;13.75;;;;;;;;;;4857278;29;20037;-80
2021/10/28 06:30:21;;;;;;;17.65;14.13;;;;;;;;;;4858862;29;20040;-80
2021/10/28 06:32:53;;;;;;;17.52;13.60;;;;;;;;;;4857675;29;20030;-79
2021/10/28 06:35:19;;;;;;;16.20;13.52;;;;;;;;;;4857949;29;20071;-79
2021/10/28 06:37:47;;;;;;;19.27;13.88;;;;;;;;;;4859062;29;20514;-80
2021/10/28 06:40:14;;;;;;;17.95;13.57;;;;;;;;;;4859804;29;20065;-79
2021/10/28 06:55:05;;;;;;;17.45;13.40;;;;;;;;;;4795633;29;20151;-82
2021/10/28 08:19:03;;;;;;;20.38;12.27;;;;;;;;;;4817819;29;20038;-82
2021/10/28 08:22:23;;;;;;;14.68;12.10;;;;;;;;;;4819872;29;20111;-82
2021/10/28 08:56:05;;;;;;;13.90;9.95;;;;;;;;;;4621604;27;20049;-81
2021/10/28 09:30:32;;;;;;;13.05;7.78;;;;;;;;;;4681308;30;20069;-81
2021/10/28 09:51:12;;;;;;;9.75;6.82;;;;;;;;;;4652382;30;20050;-81
2021/10/28 09:54:30;;;;;;;12.15;6.50;;;;;;;;;;4631187;31;20048;-81
2021/10/28 10:00:19;;;;;;;10.65;6.25;;;;;;;;;;4640867;30;20068;-80
2021/10/28 10:03:21;;;;;;;6.75;5.80;;;;;;;;;;4682564;30;20042;-81
2021/10/28 10:05:41;;;;;;;7.75;5.88;;;;;;;;;;4694711;30;20049;-80
2021/10/28 10:12:25;;;;;;;11.07;5.55;;;;;;;;;;4687832;30;20049;-81
2021/10/28 11:21:55;;;;;;;10.50;3.75;;;;;;;;;;4847378;29;20079;-79
2021/10/28 12:14:33;;;;;;;6.70;3.15;;;;;;;;;;4856054;29;20064;-84
2021/10/28 12:44:52;;;;;;;7.35;2.55;;;;;;;;;;4858190;29;20068;-81
2021/10/28 15:29:26;;;;;;;8.10;3.85;;;;;;;;;;4860417;29;20621;-81
2021/10/28 15:34:52;;;;;;;6.65;4.53;;;;;;;;;;4860250;29;20041;-82
2021/10/28 15:39:59;;;;;;;8.32;5.28;;;;;;;;;;4859879;29;20125;-83
2021/10/28 15:48:52;;;;;;;15.73;7.85;;;;;;;;;;4853940;29;20113;-81
2021/10/28 16:23:29;;;;;;;14.73;8.07;;;;;;;;;;4857409;29;20072;-80
2021/10/28 16:25:55;;;;;;;20.45;9.05;;;;;;;;;;4852690;29;20092;-80
2021/10/28 16:28:25;;;;;;;19.63;9.43;;;;;;;;;;4861319;29;20033;-81
2021/10/28 16:30:53;;;;;;;18.73;10.75;;;;;;;;;;4871318;29;20061;-81
2021/10/28 16:33:23;;;;;;;18.13;10.30;;;;;;;;;;4870790;29;20048;-81
2021/10/28 16:35:51;;;;;;;17.20;9.88;;;;;;;;;;4857488;29;20033;-80
2021/10/28 16:38:20;;;;;;;16.65;9.80;;;;;;;;;;4869665;29;20040;-81
2021/10/28 16:40:45;;;;;;;16.15;8.63;;;;;;;;;;4871090;29;20029;-81
2021/10/28 16:43:12;;;;;;;15.27;6.35;;;;;;;;;;4868922;29;20407;-81
2021/10/28 16:45:39;;;;;;;8.93;5.68;;;;;;;;;;4862354;29;20041;-80
2021/10/28 16:48:06;;;;;;;10.30;5.68;;;;;;;;;;4867360;29;20036;-80
2021/10/28 16:50:33;;;;;;;7.63;5.13;;;;;;;;;;4856687;29;20041;-81
2021/10/28 16:52:59;;;;;;;11.48;5.70;;;;;;;;;;4851140;29;20036;-81
2021/10/28 16:55:25;;;;;;;14.02;5.82;;;;;;;;;;4839876;29;20029;-81
2021/10/28 16:57:51;;;;;;;12.95;5.20;;;;;;;;;;4869073;29;20082;-81
2021/10/28 17:00:19;;;;;;;15.32;6.53;;;;;;;;;;4850489;29;20065;-80
2021/10/28 17:02:46;;;;;;;10.75;6.03;;;;;;;;;;4851700;29;20050;-80
2021/10/28 17:05:12;;;;;;;13.48;6.18;;;;;;;;;;4854014;29;20040;-80
2021/10/28 17:07:38;;;;;;;19.55;6.30;;;;;;;;;;4868254;29;20038;-81
2021/10/28 17:10:05;;;;;;;14.90;6.15;;;;;;;;;;4850869;29;20494;-81
2021/10/28 17:12:33;;;;;;;19.35;7.05;;;;;;;;;;4866774;29;20033;-81
2021/10/28 17:14:59;;;;;;;13.40;6.22;;;;;;;;;;4834235;29;20026;-80
2021/10/28 17:17:25;;;;;;;15.00;6.72;;;;;;;;;;4839657;29;20032;-80
2021/10/28 17:19:50;;;;;;;12.95;6.60;;;;;;;;;;4847779;29;20067;-81
2021/10/28 17:22:16;;;;;;;13.93;6.72;;;;;;;;;;4848124;29;20069;-81
2021/10/28 17:24:47;;;;;;;14.40;7.60;;;;;;;;;;4863980;29;20022;-82
2021/10/28 17:27:13;;;;;;;12.85;7.22;;;;;;;;;;4873594;29;20044;-81
2021/10/28 17:29:43;;;;;;;12.50;7.05;;;;;;;;;;4860107;29;20108;-81
2021/10/28 17:32:10;;;;;;;17.83;7.40;;;;;;;;;;4871159;29;20045;-80
2021/10/28 17:34:44;;;;;;;14.63;7.15;;;;;;;;;;4868770;29;20038;-81
2021/10/28 17:37:10;;;;;;;16.08;7.80;;;;;;;;;;4859880;29;20510;-81
2021/10/28 17:39:35;;;;;;;13.57;7.65;;;;;;;;;;4865965;29;20045;-81
2021/10/28 17:42:01;;;;;;;12.95;7.85;;;;;;;;;;4851092;29;20109;-81
2021/10/28 17:45:13;;;;;;;12.88;7.82;;;;;;;;;;4839221;29;20067;-81
2021/10/28 17:47:20;;;;;;;11.63;7.78;;;;;;;;;;4865875;29;20187;-81
2021/10/28 17:50:13;;;;;;;11.77;7.68;;;;;;;;;;4859515;29;20041;-83
2021/10/28 17:52:42;;;;;;;12.15;7.53;;;;;;;;;;4876821;29;20034;-81
2021/10/28 17:55:12;;;;;;;17.40;8.52;;;;;;;;;;4875907;29;20042;-81
2021/10/28 17:57:38;;;;;;;17.92;7.97;;;;;;;;;;4859048;29;20171;-81
2021/10/28 18:00:09;;;;;;;13.00;8.05;;;;;;;;;;4863706;29;20033;-82
2021/10/28 18:02:38;;;;;;;16.83;8.73;;;;;;;;;;4874267;29;20025;-81
2021/10/28 18:05:06;;;;;;;13.95;8.73;;;;;;;;;;4874473;29;20033;-81
2021/10/28 18:07:34;;;;;;;12.52;8.40;;;;;;;;;;4874407;29;20034;-81
2021/10/28 18:10:04;;;;;;;14.35;8.43;;;;;;;;;;4874605;29;20034;-81
2021/10/28 18:12:31;;;;;;;11.88;8.45;;;;;;;;;;4875265;29;20033;-82
2021/10/28 18:14:57;;;;;;;14.13;8.60;;;;;;;;;;4874677;29;20053;-82
2021/10/28 18:17:32;;;;;;;13.30;8.82;;;;;;;;;;4872962;29;20049;-81
2021/10/28 18:20:15;;;;;;;15.05;8.85;;;;;;;;;;4863649;29;20118;-81
2021/10/28 18:22:43;;;;;;;14.63;8.60;;;;;;;;;;4864359;29;20053;-81
2021/10/28 18:25:10;;;;;;;14.00;9.50;;;;;;;;;;4870979;29;20038;-81
2021/10/28 18:27:39;;;;;;;14.80;9.77;;;;;;;;;;4839868;29;20061;-81
2021/10/28 18:30:09;;;;;;;15.63;9.57;;;;;;;;;;4854483;29;20038;-81
2021/10/28 18:32:35;;;;;;;18.05;9.38;;;;;;;;;;4873284;29;20096;-81
2021/10/28 18:35:01;;;;;;;16.75;9.30;;;;;;;;;;4878304;29;20447;-81
2021/10/28 18:37:27;;;;;;;13.02;9.80;;;;;;;;;;4871328;29;20061;-81
2021/10/28 18:40:06;;;;;;;15.70;9.27;;;;;;;;;;4858894;29;20045;-81
2021/10/28 18:42:31;;;;;;;14.18;9.75;;;;;;;;;;4859309;29;20041;-81
2021/10/28 18:44:57;;;;;;;15.90;10.10;;;;;;;;;;4871328;29;20042;-81
2021/10/28 18:47:25;;;;;;;18.00;10.95;;;;;;;;;;4876456;29;20043;-81
2021/10/28 18:49:51;;;;;;;16.60;10.43;;;;;;;;;;4876472;29;20034;-81
2021/10/28 18:52:18;;;;;;;19.90;11.02;;;;;;;;;;4877286;29;20025;-81
2021/10/28 18:54:46;;;;;;;15.07;10.02;;;;;;;;;;4877285;29;20039;-81
2021/10/28 18:57:18;;;;;;;17.80;10.52;;;;;;;;;;4860817;29;20164;-81
2021/10/28 18:59:47;;;;;;;14.45;10.23;;;;;;;;;;4844364;29;20248;-82
2021/10/28 19:02:19;;;;;;;12.80;9.90;;;;;;;;;;4858295;29;20501;-81
2021/10/28 19:04:45;;;;;;;16.85;10.98;;;;;;;;;;4843502;29;20030;-82
2021/10/28 19:07:12;;;;;;;15.82;11.32;;;;;;;;;;4858844;29;20030;-81
2021/10/28 19:09:41;;;;;;;17.48;10.88;;;;;;;;;;4877742;29;20025;-81
2021/10/28 19:12:14;;;;;;;20.88;11.68;;;;;;;;;;4877148;29;20025;-81
2021/10/28 19:14:47;;;;;;;20.27;11.77;;;;;;;;;;4876236;29;20034;-81
2021/10/28 19:17:18;;;;;;;15.65;10.32;;;;;;;;;;4865430;29;20096;-81
2021/10/28 19:19:45;;;;;;;13.18;10.15;;;;;;;;;;4876382;29;20037;-81
2021/10/28 19:22:11;;;;;;;15.27;9.82;;;;;;;;;;4873032;29;20038;-81
2021/10/28 19:24:38;;;;;;;15.57;10.13;;;;;;;;;;4875586;29;20045;-81
2021/10/28 19:27:05;;;;;;;15.82;10.40;;;;;;;;;;4844606;29;20049;-81
2021/10/28 19:29:34;;;;;;;16.02;10.50;;;;;;;;;;4872082;29;20037;-81
2021/10/28 19:32:15;;;;;;;14.85;10.48;;;;;;;;;;4867131;29;20538;-81
2021/10/28 19:34:42;;;;;;;15.05;10.73;;;;;;;;;;4875412;29;20026;-81
2021/10/28 19:37:28;;;;;;;17.08;10.73;;;;;;;;;;4856537;29;20132;-81
2021/10/28 19:41:17;;;;;;;17.05;10.73;;;;;;;;;;4845398;29;20037;-82
2021/10/28 19:46:13;;;;;;;15.23;11.43;;;;;;;;;;4876885;29;20040;-81
2021/10/28 19:48:57;;;;;;;15.45;11.50;;;;;;;;;;4863489;29;20046;-81
2021/10/28 19:51:38;;;;;;;16.80;10.80;;;;;;;;;;4871102;29;20566;-81
2021/10/28 19:54:12;;;;;;;16.30;11.95;;;;;;;;;;4858666;29;20094;-81
2021/10/28 19:56:43;;;;;;;13.85;10.90;;;;;;;;;;4854763;29;20101;-81
2021/10/28 19:59:52;;;;;;;15.00;10.75;;;;;;;;;;4859023;29;20412;-81
2021/10/28 20:03:04;;;;;;;15.77;11.70;;;;;;;;;;4841465;29;20049;-81
2021/10/28 20:08:23;;;;;;;14.63;10.98;;;;;;;;;;4878468;29;20070;-81
2021/10/28 20:22:22;;;;;;;16.23;11.05;;;;;;;;;;4874290;29;20105;-81
2021/10/28 20:24:51;;;;;;;17.58;11.40;;;;;;;;;;4843019;29;20054;-81
2021/10/28 20:27:22;;;;;;;17.95;11.70;;;;;;;;;;4857755;29;20057;-81
2021/10/28 20:30:05;;;;;;;16.35;11.73;;;;;;;;;;4873975;29;20140;-81
2021/10/28 20:32:43;;;;;;;16.52;11.60;;;;;;;;;;4860862;29;20056;-81
2021/10/28 20:35:29;;;;;;;16.00;10.82;;;;;;;;;;4858408;29;20037;-80
2021/10/28 20:38:20;;;;;;;14.27;11.00;;;;;;;;;;4872101;29;20108;-81
2021/10/28 20:41:10;;;;;;;16.35;11.38;;;;;;;;;;4871543;29;20030;-81
2021/10/28 20:44:13;;;;;;;17.13;11.83;;;;;;;;;;4852697;29;20052;-82
2021/10/28 20:47:24;;;;;;;14.85;11.02;;;;;;;;;;4861238;29;20411;-81
2021/10/28 20:50:35;;;;;;;16.95;11.57;;;;;;;;;;4856130;29;20412;-81
2021/10/28 20:53:42;;;;;;;17.02;11.65;;;;;;;;;;4839400;29;20046;-81
2021/10/28 20:56:38;;;;;;;17.27;11.90;;;;;;;;;;4822132;29;20062;-81
2021/10/28 20:59:44;;;;;;;14.40;10.90;;;;;;;;;;4801712;29;20079;-82
2021/10/28 21:02:35;;;;;;;15.55;11.50;;;;;;;;;;4805482;29;20042;-81
2021/10/28 21:05:29;;;;;;;16.77;11.63;;;;;;;;;;4821830;29;20034;-81
2021/10/28 21:07:58;;;;;;;14.85;11.43;;;;;;;;;;4821829;29;20042;-81
2021/10/28 21:10:52;;;;;;;15.95;11.40;;;;;;;;;;4840542;29;20010;-81
2021/10/28 21:13:48;;;;;;;16.25;12.48;;;;;;;;;;4821288;29;20094;-81
2021/10/28 21:17:51;;;;;;;;;;;;;;;;;;;;;
2021/10/28 21:21:12;;;;;;;18.05;12.88;;;;;;;;;;4786855;29;20038;-82
2021/10/28 21:28:38;;;;;;;;;;;;;;;;;;;;;
2021/10/28 21:31:49;;;;;;;19.30;12.88;;;;;;;;;;4721804;30;20061;-82
2021/10/28 21:39:59;;;;;;;;;;;;;;;;;;;;;
2021/10/28 21:49:46;;;;;;;16.38;11.80;;;;;;;;;;4635644;31;20027;-82
2021/10/28 21:53:01;;;;;;;15.82;11.18;;;;;;;;;;4602472;31;20029;-82
2021/10/28 22:25:18;;;;;;;17.10;13.85;;;;;;;;;;4619399;30;20122;-81
2021/10/28 22:27:48;;;;;;;17.27;13.82;;;;;;;;;;4664374;30;20082;-80
2021/10/28 22:30:49;;;;;;;17.40;13.45;;;;;;;;;;4647548;30;20086;-81
2021/10/28 22:34:01;;;;;;;16.83;13.52;;;;;;;;;;4660054;30;20051;-81
2021/10/28 22:37:03;;;;;;;;;;;;;;;;;;;;;
2021/10/28 22:42:41;;;;;;;17.02;13.38;;;;;;;;;;4734586;30;20060;-81
2021/10/28 22:45:24;;;;;;;19.27;14.85;;;;;;;;;;4735671;30;20571;-81
2021/10/28 22:48:03;;;;;;;19.08;13.82;;;;;;;;;;4751691;30;20051;-81
2021/10/28 22:50:46;;;;;;;21.77;14.70;;;;;;;;;;4778393;30;20084;-81
2021/10/28 22:53:51;;;;;;;17.95;13.18;;;;;;;;;;4786442;30;20031;-81
2021/10/28 22:56:32;;;;;;;21.92;13.55;;;;;;;;;;4785883;30;20103;-81
2021/10/28 22:59:17;;;;;;;15.88;12.55;;;;;;;;;;4762885;30;20415;-80
2021/10/28 23:02:56;;;;;;;17.02;13.15;;;;;;;;;;4783668;30;20052;-81
2021/10/28 23:21:37;;;;;;;;;;;;;;;;;;;;;
2021/10/28 23:24:43;;;;;;;14.20;11.05;;;;;;;;;;4771846;30;20068;-81
2021/10/28 23:27:21;;;;;;;16.27;11.88;;;;;;;;;;4740681;30;20036;-81
2021/10/28 23:30:08;;;;;;;;;;;;;;;;;;;;;
2021/10/28 23:33:44;;;;;;;;;;;;;;;;;;;;;
2021/10/28 23:40:28;;;;;;;15.40;11.80;;;;;;;;;;4634293;31;20095;-82
2021/10/28 23:46:50;;;;;;;16.23;11.38;;;;;;;;;;4585718;31;20086;-81
2021/10/28 23:49:50;;;;;;;;;;;;;;;;;;;;;
2021/10/28 23:53:04;;;;;;;16.20;11.35;;;;;;;;;;4584205;31;20101;-82
2021/10/28 23:56:00;;;;;;;;;;;;;;;;;;;;;
